sensor_id;sensor_type;location;lat;lon;timestamp;temperature;humidity
46037;DHT22;31769;49.304;8.428;2023-07-29T00:01:51;18.70;99.90
46037;DHT22;31769;49.304;8.428;2023-07-29T00:04:54;18.70;99.90
46037;DHT22;31769;49.304;8.428;2023-07-29T00:07:54;18.60;99.90
46037;DHT22;31769;49.304;8.428;2023-07-29T00:10:55;18.60;99.90
46037;DHT22;31769;49.304;8.428;2023-07-29T00:13:56;18.70;99.90
46037;DHT22;31769;49.304;8.428;2023-07-29T00:16:56;18.60;99.90
46037;DHT22;31769;49.304;8.428;2023-07-29T00:19:57;18.70;99.90
46037;DHT22;31769;49.304;8.428;2023-07-29T00:22:57;18.60;99.90
46037;DHT22;31769;49.304;8.428;2023-07-29T00:25:58;18.60;99.90
46037;DHT22;31769;49.304;8.428;2023-07-29T00:28:59;18.60;99.90
46037;DHT22;31769;49.304;8.428;2023-07-29T00:32:00;18.60;99.90
46037;DHT22;31769;49.304;8.428;2023-07-29T00:35:00;18.60;99.90
46037;DHT22;31769;49.304;8.428;2023-07-29T00:38:01;18.70;99.90
46037;DHT22;31769;49.304;8.428;2023-07-29T00:41:02;18.70;99.90
46037;DHT22;31769;49.304;8.428;2023-07-29T00:44:04;18.70;99.90
46037;DHT22;31769;49.304;8.428;2023-07-29T00:47:05;18.70;99.90
46037;DHT22;31769;49.304;8.428;2023-07-29T00:50:07;18.70;99.90
46037;DHT22;31769;49.304;8.428;2023-07-29T00:53:08;18.60;99.90
46037;DHT22;31769;49.304;8.428;2023-07-29T00:56:09;18.60;99.90
46037;DHT22;31769;49.304;8.428;2023-07-29T00:59:12;18.50;99.90
46037;DHT22;31769;49.304;8.428;2023-07-29T01:02:13;18.50;99.90
46037;DHT22;31769;49.304;8.428;2023-07-29T01:05:16;18.50;99.90
46037;DHT22;31769;49.304;8.428;2023-07-29T01:08:33;18.50;99.90
46037;DHT22;31769;49.304;8.428;2023-07-29T01:18:28;18.40;99.90
46037;DHT22;31769;49.304;8.428;2023-07-29T01:21:30;18.40;99.90
46037;DHT22;31769;49.304;8.428;2023-07-29T01:24:31;18.40;99.90
46037;DHT22;31769;49.304;8.428;2023-07-29T01:27:32;18.40;99.90
46037;DHT22;31769;49.304;8.428;2023-07-29T01:30:38;18.30;99.90
46037;DHT22;31769;49.304;8.428;2023-07-29T01:33:48;18.30;99.90
46037;DHT22;31769;49.304;8.428;2023-07-29T01:36:51;18.30;99.90
46037;DHT22;31769;49.304;8.428;2023-07-29T01:39:57;18.30;99.90
46037;DHT22;31769;49.304;8.428;2023-07-29T01:42:59;18.40;99.90
46037;DHT22;31769;49.304;8.428;2023-07-29T01:46:00;18.40;99.90
46037;DHT22;31769;49.304;8.428;2023-07-29T01:49:01;18.40;99.90
46037;DHT22;31769;49.304;8.428;2023-07-29T01:52:02;18.40;99.90
46037;DHT22;31769;49.304;8.428;2023-07-29T01:55:03;18.40;99.90
46037;DHT22;31769;49.304;8.428;2023-07-29T01:58:04;18.40;99.90
46037;DHT22;31769;49.304;8.428;2023-07-29T02:01:05;18.30;99.90
46037;DHT22;31769;49.304;8.428;2023-07-29T02:04:06;18.00;99.90
46037;DHT22;31769;49.304;8.428;2023-07-29T02:07:06;18.60;99.90
46037;DHT22;31769;49.304;8.428;2023-07-29T02:10:07;18.70;99.90
46037;DHT22;31769;49.304;8.428;2023-07-29T02:13:08;18.30;99.90
46037;DHT22;31769;49.304;8.428;2023-07-29T02:16:11;18.30;99.90
46037;DHT22;31769;49.304;8.428;2023-07-29T02:19:12;18.60;99.90
46037;DHT22;31769;49.304;8.428;2023-07-29T02:22:14;18.30;99.90
46037;DHT22;31769;49.304;8.428;2023-07-29T02:25:15;18.30;99.90
46037;DHT22;31769;49.304;8.428;2023-07-29T02:28:15;18.30;99.90
46037;DHT22;31769;49.304;8.428;2023-07-29T02:31:19;18.30;99.90
46037;DHT22;31769;49.304;8.428;2023-07-29T02:34:20;18.30;99.90
46037;DHT22;31769;49.304;8.428;2023-07-29T02:37:21;18.20;99.90
46037;DHT22;31769;49.304;8.428;2023-07-29T02:40:22;18.20;99.90
46037;DHT22;31769;49.304;8.428;2023-07-29T02:43:23;18.30;99.90
46037;DHT22;31769;49.304;8.428;2023-07-29T02:46:23;18.30;99.90
46037;DHT22;31769;49.304;8.428;2023-07-29T02:49:24;18.30;99.90
46037;DHT22;31769;49.304;8.428;2023-07-29T02:52:25;18.30;99.90
46037;DHT22;31769;49.304;8.428;2023-07-29T02:55:26;18.20;99.90
46037;DHT22;31769;49.304;8.428;2023-07-29T02:58:27;18.20;99.90
46037;DHT22;31769;49.304;8.428;2023-07-29T03:01:27;18.20;99.90
46037;DHT22;31769;49.304;8.428;2023-07-29T03:04:28;18.20;99.90
46037;DHT22;31769;49.304;8.428;2023-07-29T03:07:29;18.20;99.90
46037;DHT22;31769;49.304;8.428;2023-07-29T03:10:30;18.30;99.90
46037;DHT22;31769;49.304;8.428;2023-07-29T03:13:30;18.30;99.90
46037;DHT22;31769;49.304;8.428;2023-07-29T03:16:31;18.20;99.90
46037;DHT22;31769;49.304;8.428;2023-07-29T03:19:33;18.60;99.90
46037;DHT22;31769;49.304;8.428;2023-07-29T03:22:34;18.30;99.90
46037;DHT22;31769;49.304;8.428;2023-07-29T03:25:34;18.10;99.90
46037;DHT22;31769;49.304;8.428;2023-07-29T03:28:39;19.00;99.90
46037;DHT22;31769;49.304;8.428;2023-07-29T03:31:40;18.10;99.90
46037;DHT22;31769;49.304;8.428;2023-07-29T03:34:41;18.20;99.90
46037;DHT22;31769;49.304;8.428;2023-07-29T03:37:42;18.30;99.90
46037;DHT22;31769;49.304;8.428;2023-07-29T03:40:43;18.30;99.90
46037;DHT22;31769;49.304;8.428;2023-07-29T03:43:43;18.30;99.90
46037;DHT22;31769;49.304;8.428;2023-07-29T03:46:44;18.30;99.90
46037;DHT22;31769;49.304;8.428;2023-07-29T03:49:45;18.60;99.90
46037;DHT22;31769;49.304;8.428;2023-07-29T03:52:47;18.30;99.90
46037;DHT22;31769;49.304;8.428;2023-07-29T03:55:48;18.30;99.90
46037;DHT22;31769;49.304;8.428;2023-07-29T03:58:51;18.70;99.90
46037;DHT22;31769;49.304;8.428;2023-07-29T04:01:52;18.30;99.90
46037;DHT22;31769;49.304;8.428;2023-07-29T04:04:53;18.30;99.90
46037;DHT22;31769;49.304;8.428;2023-07-29T04:07:54;18.30;99.90
46037;DHT22;31769;49.304;8.428;2023-07-29T04:10:55;18.30;99.90
46037;DHT22;31769;49.304;8.428;2023-07-29T04:13:55;18.30;99.90
46037;DHT22;31769;49.304;8.428;2023-07-29T04:16:56;18.30;99.90
46037;DHT22;31769;49.304;8.428;2023-07-29T04:19:57;18.20;99.90
46037;DHT22;31769;49.304;8.428;2023-07-29T04:23:03;18.20;99.90
46037;DHT22;31769;49.304;8.428;2023-07-29T04:26:03;18.20;99.90
46037;DHT22;31769;49.304;8.428;2023-07-29T04:29:04;18.10;99.90
46037;DHT22;31769;49.304;8.428;2023-07-29T04:32:05;18.10;99.90
46037;DHT22;31769;49.304;8.428;2023-07-29T04:35:06;18.10;99.90
46037;DHT22;31769;49.304;8.428;2023-07-29T04:38:09;18.20;99.90
46037;DHT22;31769;49.304;8.428;2023-07-29T04:41:10;18.20;99.90
46037;DHT22;31769;49.304;8.428;2023-07-29T04:44:11;18.20;99.90
46037;DHT22;31769;49.304;8.428;2023-07-29T04:47:12;18.10;99.90
46037;DHT22;31769;49.304;8.428;2023-07-29T04:50:12;18.20;99.90
46037;DHT22;31769;49.304;8.428;2023-07-29T04:53:13;18.10;99.90
46037;DHT22;31769;49.304;8.428;2023-07-29T04:56:14;18.30;99.90
46037;DHT22;31769;49.304;8.428;2023-07-29T04:59:14;18.20;99.90
46037;DHT22;31769;49.304;8.428;2023-07-29T05:02:15;18.30;99.90
46037;DHT22;31769;49.304;8.428;2023-07-29T05:05:16;18.20;99.90
46037;DHT22;31769;49.304;8.428;2023-07-29T05:08:17;18.30;99.90
46037;DHT22;31769;49.304;8.428;2023-07-29T05:11:17;18.30;99.90
46037;DHT22;31769;49.304;8.428;2023-07-29T05:14:18;19.00;99.90
46037;DHT22;31769;49.304;8.428;2023-07-29T05:17:19;18.40;99.90
46037;DHT22;31769;49.304;8.428;2023-07-29T05:20:19;18.40;99.90
46037;DHT22;31769;49.304;8.428;2023-07-29T05:23:20;18.40;99.90
46037;DHT22;31769;49.304;8.428;2023-07-29T05:26:21;18.50;99.90
46037;DHT22;31769;49.304;8.428;2023-07-29T05:29:22;18.40;99.90
46037;DHT22;31769;49.304;8.428;2023-07-29T05:32:22;18.30;99.90
46037;DHT22;31769;49.304;8.428;2023-07-29T05:35:24;18.30;99.90
46037;DHT22;31769;49.304;8.428;2023-07-29T05:38:26;18.30;99.90
46037;DHT22;31769;49.304;8.428;2023-07-29T05:41:26;18.30;99.90
46037;DHT22;31769;49.304;8.428;2023-07-29T05:44:28;18.30;99.90
46037;DHT22;31769;49.304;8.428;2023-07-29T05:47:30;18.40;99.90
46037;DHT22;31769;49.304;8.428;2023-07-29T05:50:32;18.40;99.90
46037;DHT22;31769;49.304;8.428;2023-07-29T05:53:32;18.50;99.90
46037;DHT22;31769;49.304;8.428;2023-07-29T05:56:33;18.60;99.90
46037;DHT22;31769;49.304;8.428;2023-07-29T05:59:33;18.60;99.90
46037;DHT22;31769;49.304;8.428;2023-07-29T06:02:34;18.70;99.90
46037;DHT22;31769;49.304;8.428;2023-07-29T06:05:35;18.80;99.90
46037;DHT22;31769;49.304;8.428;2023-07-29T06:08:37;19.00;99.90
46037;DHT22;31769;49.304;8.428;2023-07-29T06:11:38;19.10;99.90
46037;DHT22;31769;49.304;8.428;2023-07-29T06:14:38;19.20;99.90
46037;DHT22;31769;49.304;8.428;2023-07-29T06:17:40;19.30;99.90
46037;DHT22;31769;49.304;8.428;2023-07-29T06:20:41;19.30;99.90
46037;DHT22;31769;49.304;8.428;2023-07-29T06:23:43;19.30;99.90
46037;DHT22;31769;49.304;8.428;2023-07-29T06:26:44;19.40;99.90
46037;DHT22;31769;49.304;8.428;2023-07-29T06:29:44;19.40;99.90
46037;DHT22;31769;49.304;8.428;2023-07-29T06:32:45;19.50;99.90
46037;DHT22;31769;49.304;8.428;2023-07-29T06:35:46;19.50;99.90
46037;DHT22;31769;49.304;8.428;2023-07-29T06:38:47;19.50;99.90
46037;DHT22;31769;49.304;8.428;2023-07-29T06:41:48;19.60;99.90
46037;DHT22;31769;49.304;8.428;2023-07-29T06:44:49;19.70;99.90
46037;DHT22;31769;49.304;8.428;2023-07-29T06:47:53;19.70;99.90
46037;DHT22;31769;49.304;8.428;2023-07-29T06:50:53;19.80;99.90
46037;DHT22;31769;49.304;8.428;2023-07-29T06:53:55;19.80;99.90
46037;DHT22;31769;49.304;8.428;2023-07-29T06:56:56;19.70;99.90
46037;DHT22;31769;49.304;8.428;2023-07-29T06:59:57;19.80;99.90
46037;DHT22;31769;49.304;8.428;2023-07-29T07:02:58;19.90;99.90
46037;DHT22;31769;49.304;8.428;2023-07-29T07:05:59;19.90;99.90
46037;DHT22;31769;49.304;8.428;2023-07-29T07:09:03;20.00;99.90
46037;DHT22;31769;49.304;8.428;2023-07-29T07:12:04;20.10;99.90
46037;DHT22;31769;49.304;8.428;2023-07-29T07:15:06;20.20;99.90
46037;DHT22;31769;49.304;8.428;2023-07-29T07:18:07;20.20;99.90
46037;DHT22;31769;49.304;8.428;2023-07-29T07:21:08;20.50;99.90
46037;DHT22;31769;49.304;8.428;2023-07-29T07:24:09;20.80;99.90
46037;DHT22;31769;49.304;8.428;2023-07-29T07:27:09;21.00;99.90
46037;DHT22;31769;49.304;8.428;2023-07-29T07:30:10;21.00;99.90
46037;DHT22;31769;49.304;8.428;2023-07-29T07:33:11;21.10;99.90
46037;DHT22;31769;49.304;8.428;2023-07-29T07:36:12;21.00;99.90
46037;DHT22;31769;49.304;8.428;2023-07-29T07:39:14;20.70;99.90
46037;DHT22;31769;49.304;8.428;2023-07-29T07:42:15;20.70;99.90
46037;DHT22;31769;49.304;8.428;2023-07-29T07:45:16;20.70;99.90
46037;DHT22;31769;49.304;8.428;2023-07-29T07:48:18;20.70;99.90
46037;DHT22;31769;49.304;8.428;2023-07-29T07:51:20;20.70;99.90
46037;DHT22;31769;49.304;8.428;2023-07-29T07:54:21;20.70;99.90
46037;DHT22;31769;49.304;8.428;2023-07-29T07:57:22;20.70;99.90
46037;DHT22;31769;49.304;8.428;2023-07-29T08:00:23;20.70;99.90
46037;DHT22;31769;49.304;8.428;2023-07-29T08:03:26;20.80;99.90
46037;DHT22;31769;49.304;8.428;2023-07-29T08:06:27;20.80;99.90
46037;DHT22;31769;49.304;8.428;2023-07-29T08:09:27;20.80;99.90
46037;DHT22;31769;49.304;8.428;2023-07-29T08:12:28;20.80;99.90
46037;DHT22;31769;49.304;8.428;2023-07-29T08:15:29;20.90;99.90
46037;DHT22;31769;49.304;8.428;2023-07-29T08:18:30;20.90;99.90
46037;DHT22;31769;49.304;8.428;2023-07-29T08:21:31;21.10;99.90
46037;DHT22;31769;49.304;8.428;2023-07-29T08:24:31;21.30;99.90
46037;DHT22;31769;49.304;8.428;2023-07-29T08:27:33;21.50;99.90
46037;DHT22;31769;49.304;8.428;2023-07-29T08:30:34;21.50;99.90
46037;DHT22;31769;49.304;8.428;2023-07-29T08:33:35;21.60;99.90
46037;DHT22;31769;49.304;8.428;2023-07-29T08:36:36;21.40;99.90
46037;DHT22;31769;49.304;8.428;2023-07-29T08:39:37;21.60;99.90
46037;DHT22;31769;49.304;8.428;2023-07-29T08:42:38;21.70;99.90
46037;DHT22;31769;49.304;8.428;2023-07-29T08:45:42;21.60;99.90
46037;DHT22;31769;49.304;8.428;2023-07-29T08:48:44;21.60;99.90
46037;DHT22;31769;49.304;8.428;2023-07-29T08:51:46;21.60;99.90
46037;DHT22;31769;49.304;8.428;2023-07-29T08:54:48;21.60;99.90
46037;DHT22;31769;49.304;8.428;2023-07-29T08:57:49;21.80;99.90
46037;DHT22;31769;49.304;8.428;2023-07-29T09:00:50;21.70;99.90
46037;DHT22;31769;49.304;8.428;2023-07-29T09:03:51;21.80;99.90
46037;DHT22;31769;49.304;8.428;2023-07-29T09:06:53;22.20;99.90
46037;DHT22;31769;49.304;8.428;2023-07-29T09:09:56;22.40;99.90
46037;DHT22;31769;49.304;8.428;2023-07-29T09:12:56;22.40;99.90
46037;DHT22;31769;49.304;8.428;2023-07-29T09:15:58;22.70;99.90
46037;DHT22;31769;49.304;8.428;2023-07-29T09:19:02;22.80;99.90
46037;DHT22;31769;49.304;8.428;2023-07-29T09:22:03;22.90;99.90
46037;DHT22;31769;49.304;8.428;2023-07-29T09:25:04;22.90;99.90
46037;DHT22;31769;49.304;8.428;2023-07-29T09:28:13;23.10;99.90
46037;DHT22;31769;49.304;8.428;2023-07-29T09:31:22;23.30;99.90
46037;DHT22;31769;49.304;8.428;2023-07-29T09:34:23;23.30;99.90
46037;DHT22;31769;49.304;8.428;2023-07-29T09:37:24;23.40;99.90
46037;DHT22;31769;49.304;8.428;2023-07-29T09:40:25;23.60;99.90
46037;DHT22;31769;49.304;8.428;2023-07-29T09:43:30;23.60;99.90
46037;DHT22;31769;49.304;8.428;2023-07-29T09:46:38;23.50;99.90
46037;DHT22;31769;49.304;8.428;2023-07-29T09:49:38;23.70;99.90
46037;DHT22;31769;49.304;8.428;2023-07-29T09:52:39;23.80;99.90
46037;DHT22;31769;49.304;8.428;2023-07-29T09:55:46;24.00;99.90
46037;DHT22;31769;49.304;8.428;2023-07-29T09:58:48;24.00;99.90
46037;DHT22;31769;49.304;8.428;2023-07-29T10:01:49;24.00;99.90
46037;DHT22;31769;49.304;8.428;2023-07-29T10:04:54;24.10;99.90
46037;DHT22;31769;49.304;8.428;2023-07-29T10:07:56;24.40;99.90
46037;DHT22;31769;49.304;8.428;2023-07-29T10:10:59;24.70;99.90
46037;DHT22;31769;49.304;8.428;2023-07-29T10:14:01;24.90;99.90
46037;DHT22;31769;49.304;8.428;2023-07-29T10:17:02;24.70;99.90
46037;DHT22;31769;49.304;8.428;2023-07-29T10:20:06;24.50;99.90
46037;DHT22;31769;49.304;8.428;2023-07-29T10:23:07;24.40;99.90
46037;DHT22;31769;49.304;8.428;2023-07-29T10:26:10;24.20;99.90
46037;DHT22;31769;49.304;8.428;2023-07-29T10:29:13;23.90;99.90
46037;DHT22;31769;49.304;8.428;2023-07-29T10:32:15;23.70;99.90
46037;DHT22;31769;49.304;8.428;2023-07-29T10:35:16;23.60;99.90
46037;DHT22;31769;49.304;8.428;2023-07-29T10:38:17;23.70;99.90
46037;DHT22;31769;49.304;8.428;2023-07-29T10:41:19;23.90;99.90
46037;DHT22;31769;49.304;8.428;2023-07-29T10:47:39;24.30;99.90
46037;DHT22;31769;49.304;8.428;2023-07-29T10:50:40;24.50;99.90
46037;DHT22;31769;49.304;8.428;2023-07-29T10:53:41;24.80;99.90
46037;DHT22;31769;49.304;8.428;2023-07-29T10:56:44;24.90;99.90
46037;DHT22;31769;49.304;8.428;2023-07-29T10:59:55;24.90;99.90
46037;DHT22;31769;49.304;8.428;2023-07-29T11:03:05;24.60;99.90
46037;DHT22;31769;49.304;8.428;2023-07-29T11:06:06;24.50;99.90
46037;DHT22;31769;49.304;8.428;2023-07-29T11:13:02;25.00;99.90
46037;DHT22;31769;49.304;8.428;2023-07-29T11:16:04;25.10;99.90
46037;DHT22;31769;49.304;8.428;2023-07-29T11:19:09;25.00;99.90
46037;DHT22;31769;49.304;8.428;2023-07-29T11:22:13;24.90;99.90
46037;DHT22;31769;49.304;8.428;2023-07-29T11:25:15;24.90;99.90
46037;DHT22;31769;49.304;8.428;2023-07-29T11:28:16;24.80;99.90
46037;DHT22;31769;49.304;8.428;2023-07-29T11:31:16;24.80;99.90
46037;DHT22;31769;49.304;8.428;2023-07-29T11:34:31;24.80;99.90
46037;DHT22;31769;49.304;8.428;2023-07-29T11:37:33;24.90;99.90
46037;DHT22;31769;49.304;8.428;2023-07-29T11:40:34;24.90;99.90
46037;DHT22;31769;49.304;8.428;2023-07-29T11:43:36;24.90;99.90
46037;DHT22;31769;49.304;8.428;2023-07-29T11:46:37;25.10;99.90
46037;DHT22;31769;49.304;8.428;2023-07-29T11:49:41;25.10;99.90
46037;DHT22;31769;49.304;8.428;2023-07-29T11:52:43;25.30;99.90
46037;DHT22;31769;49.304;8.428;2023-07-29T11:55:44;25.40;99.90
46037;DHT22;31769;49.304;8.428;2023-07-29T11:58:44;25.60;99.90
46037;DHT22;31769;49.304;8.428;2023-07-29T12:01:46;25.40;99.90
46037;DHT22;31769;49.304;8.428;2023-07-29T12:04:47;25.50;99.90
46037;DHT22;31769;49.304;8.428;2023-07-29T12:07:48;25.30;99.90
46037;DHT22;31769;49.304;8.428;2023-07-29T12:10:49;25.70;99.90
46037;DHT22;31769;49.304;8.428;2023-07-29T12:13:49;26.00;99.90
46037;DHT22;31769;49.304;8.428;2023-07-29T12:16:51;26.10;99.90
46037;DHT22;31769;49.304;8.428;2023-07-29T12:19:54;26.50;99.90
46037;DHT22;31769;49.304;8.428;2023-07-29T12:22:56;26.40;99.90
46037;DHT22;31769;49.304;8.428;2023-07-29T12:25:59;26.50;99.90
46037;DHT22;31769;49.304;8.428;2023-07-29T12:29:13;26.60;99.90
46037;DHT22;31769;49.304;8.428;2023-07-29T12:32:14;26.50;99.90
46037;DHT22;31769;49.304;8.428;2023-07-29T12:35:15;26.90;99.90
46037;DHT22;31769;49.304;8.428;2023-07-29T12:38:21;26.90;99.90
46037;DHT22;31769;49.304;8.428;2023-07-29T12:41:21;26.90;99.90
46037;DHT22;31769;49.304;8.428;2023-07-29T12:44:31;27.60;99.90
46037;DHT22;31769;49.304;8.428;2023-07-29T12:47:32;28.40;99.90
46037;DHT22;31769;49.304;8.428;2023-07-29T12:50:33;29.00;99.90
46037;DHT22;31769;49.304;8.428;2023-07-29T12:53:34;29.80;99.50
46037;DHT22;31769;49.304;8.428;2023-07-29T12:56:35;29.90;99.10
46037;DHT22;31769;49.304;8.428;2023-07-29T12:59:35;30.20;98.40
46037;DHT22;31769;49.304;8.428;2023-07-29T13:02:36;31.10;96.90
46037;DHT22;31769;49.304;8.428;2023-07-29T13:05:36;32.80;93.10
46037;DHT22;31769;49.304;8.428;2023-07-29T13:08:37;33.30;90.20
46037;DHT22;31769;49.304;8.428;2023-07-29T13:11:38;32.40;85.10
46037;DHT22;31769;49.304;8.428;2023-07-29T13:14:38;31.40;88.80
46037;DHT22;31769;49.304;8.428;2023-07-29T13:17:39;31.50;87.50
46037;DHT22;31769;49.304;8.428;2023-07-29T13:20:40;31.70;87.50
46037;DHT22;31769;49.304;8.428;2023-07-29T13:23:40;31.10;88.60
46037;DHT22;31769;49.304;8.428;2023-07-29T13:26:41;32.80;85.40
46037;DHT22;31769;49.304;8.428;2023-07-29T13:29:42;34.20;80.00
46037;DHT22;31769;49.304;8.428;2023-07-29T13:32:44;35.00;76.40
46037;DHT22;31769;49.304;8.428;2023-07-29T13:35:44;35.60;74.20
46037;DHT22;31769;49.304;8.428;2023-07-29T13:38:45;35.80;71.60
46037;DHT22;31769;49.304;8.428;2023-07-29T13:41:46;35.70;70.60
46037;DHT22;31769;49.304;8.428;2023-07-29T13:44:46;35.30;70.70
46037;DHT22;31769;49.304;8.428;2023-07-29T13:47:48;34.40;73.60
46037;DHT22;31769;49.304;8.428;2023-07-29T13:50:48;35.10;71.70
46037;DHT22;31769;49.304;8.428;2023-07-29T13:53:49;34.90;71.50
46037;DHT22;31769;49.304;8.428;2023-07-29T13:56:50;34.30;73.30
46037;DHT22;31769;49.304;8.428;2023-07-29T13:59:50;34.00;74.10
46037;DHT22;31769;49.304;8.428;2023-07-29T14:02:51;33.70;75.70
46037;DHT22;31769;49.304;8.428;2023-07-29T14:05:52;35.10;72.10
46037;DHT22;31769;49.304;8.428;2023-07-29T14:08:52;35.60;71.30
46037;DHT22;31769;49.304;8.428;2023-07-29T14:16:16;38.20;67.80
46037;DHT22;31769;49.304;8.428;2023-07-29T14:19:17;37.60;64.60
46037;DHT22;31769;49.304;8.428;2023-07-29T14:22:17;36.00;67.50
46037;DHT22;31769;49.304;8.428;2023-07-29T14:25:18;36.20;68.70
46037;DHT22;31769;49.304;8.428;2023-07-29T14:28:19;38.00;65.70
46037;DHT22;31769;49.304;8.428;2023-07-29T14:31:19;38.50;62.30
46037;DHT22;31769;49.304;8.428;2023-07-29T14:34:20;37.70;62.40
46037;DHT22;31769;49.304;8.428;2023-07-29T14:37:21;36.90;63.00
46037;DHT22;31769;49.304;8.428;2023-07-29T14:40:21;36.70;64.50
46037;DHT22;31769;49.304;8.428;2023-07-29T14:43:22;37.30;63.50
46037;DHT22;31769;49.304;8.428;2023-07-29T14:46:23;36.40;63.50
46037;DHT22;31769;49.304;8.428;2023-07-29T14:49:24;35.60;65.00
46037;DHT22;31769;49.304;8.428;2023-07-29T14:52:25;36.30;65.80
46037;DHT22;31769;49.304;8.428;2023-07-29T14:55:25;36.70;63.90
46037;DHT22;31769;49.304;8.428;2023-07-29T14:58:26;38.30;62.20
46037;DHT22;31769;49.304;8.428;2023-07-29T15:01:27;37.80;60.70
46037;DHT22;31769;49.304;8.428;2023-07-29T15:04:28;37.80;61.10
46037;DHT22;31769;49.304;8.428;2023-07-29T15:07:28;38.40;60.90
46037;DHT22;31769;49.304;8.428;2023-07-29T15:10:29;37.40;61.70
46037;DHT22;31769;49.304;8.428;2023-07-29T15:13:30;37.10;61.20
46037;DHT22;31769;49.304;8.428;2023-07-29T15:16:30;36.60;62.80
46037;DHT22;31769;49.304;8.428;2023-07-29T15:19:31;35.60;64.80
46037;DHT22;31769;49.304;8.428;2023-07-29T15:22:32;36.40;63.10
46037;DHT22;31769;49.304;8.428;2023-07-29T15:25:32;36.40;63.10
46037;DHT22;31769;49.304;8.428;2023-07-29T15:28:33;36.70;62.60
46037;DHT22;31769;49.304;8.428;2023-07-29T15:31:34;37.10;60.90
46037;DHT22;31769;49.304;8.428;2023-07-29T15:34:35;37.50;59.60
46037;DHT22;31769;49.304;8.428;2023-07-29T15:37:36;36.00;62.10
46037;DHT22;31769;49.304;8.428;2023-07-29T15:40:37;35.40;64.70
46037;DHT22;31769;49.304;8.428;2023-07-29T15:43:38;34.00;67.70
46037;DHT22;31769;49.304;8.428;2023-07-29T15:46:39;32.00;71.70
46037;DHT22;31769;49.304;8.428;2023-07-29T15:49:39;30.60;76.20
46037;DHT22;31769;49.304;8.428;2023-07-29T15:52:40;29.50;78.50
46037;DHT22;31769;49.304;8.428;2023-07-29T15:55:43;29.40;80.20
46037;DHT22;31769;49.304;8.428;2023-07-29T15:58:43;29.20;81.80
46037;DHT22;31769;49.304;8.428;2023-07-29T16:01:44;28.60;84.10
46037;DHT22;31769;49.304;8.428;2023-07-29T16:04:44;27.80;88.80
46037;DHT22;31769;49.304;8.428;2023-07-29T16:07:45;27.20;90.90
46037;DHT22;31769;49.304;8.428;2023-07-29T16:10:46;26.80;92.60
46037;DHT22;31769;49.304;8.428;2023-07-29T16:13:46;26.50;93.50
46037;DHT22;31769;49.304;8.428;2023-07-29T16:16:47;26.20;96.20
46037;DHT22;31769;49.304;8.428;2023-07-29T16:19:56;25.70;99.90
46037;DHT22;31769;49.304;8.428;2023-07-29T16:22:57;25.30;99.90
46037;DHT22;31769;49.304;8.428;2023-07-29T16:25:59;24.90;99.90
46037;DHT22;31769;49.304;8.428;2023-07-29T16:28:59;24.70;99.90
46037;DHT22;31769;49.304;8.428;2023-07-29T16:32:00;24.60;99.90
46037;DHT22;31769;49.304;8.428;2023-07-29T16:35:01;24.50;99.90
46037;DHT22;31769;49.304;8.428;2023-07-29T16:38:01;24.30;99.90
46037;DHT22;31769;49.304;8.428;2023-07-29T16:41:03;24.00;99.90
46037;DHT22;31769;49.304;8.428;2023-07-29T16:44:03;23.90;99.90
46037;DHT22;31769;49.304;8.428;2023-07-29T16:47:04;23.70;99.90
46037;DHT22;31769;49.304;8.428;2023-07-29T16:50:05;23.60;99.90
46037;DHT22;31769;49.304;8.428;2023-07-29T16:53:06;23.40;99.90
46037;DHT22;31769;49.304;8.428;2023-07-29T16:56:07;23.30;99.90
46037;DHT22;31769;49.304;8.428;2023-07-29T16:59:07;23.30;99.90
46037;DHT22;31769;49.304;8.428;2023-07-29T17:02:09;23.40;99.90
46037;DHT22;31769;49.304;8.428;2023-07-29T17:05:09;24.80;99.90
46037;DHT22;31769;49.304;8.428;2023-07-29T17:08:10;26.50;99.90
46037;DHT22;31769;49.304;8.428;2023-07-29T17:11:11;28.10;99.90
46037;DHT22;31769;49.304;8.428;2023-07-29T17:14:11;27.70;99.90
46037;DHT22;31769;49.304;8.428;2023-07-29T17:17:12;26.50;99.90
46037;DHT22;31769;49.304;8.428;2023-07-29T17:20:13;25.80;99.90
46037;DHT22;31769;49.304;8.428;2023-07-29T17:23:14;25.40;99.90
46037;DHT22;31769;49.304;8.428;2023-07-29T17:26:15;24.90;99.90
46037;DHT22;31769;49.304;8.428;2023-07-29T17:29:16;24.50;99.90
46037;DHT22;31769;49.304;8.428;2023-07-29T17:32:16;24.20;99.90
46037;DHT22;31769;49.304;8.428;2023-07-29T17:35:17;24.20;99.90
46037;DHT22;31769;49.304;8.428;2023-07-29T17:38:19;24.40;99.90
46037;DHT22;31769;49.304;8.428;2023-07-29T17:41:20;24.90;99.90
46037;DHT22;31769;49.304;8.428;2023-07-29T17:44:20;25.10;99.90
46037;DHT22;31769;49.304;8.428;2023-07-29T17:47:21;25.40;99.90
46037;DHT22;31769;49.304;8.428;2023-07-29T17:50:22;25.30;99.90
46037;DHT22;31769;49.304;8.428;2023-07-29T17:53:23;25.30;99.90
46037;DHT22;31769;49.304;8.428;2023-07-29T17:56:24;25.30;99.90
46037;DHT22;31769;49.304;8.428;2023-07-29T17:59:26;25.40;99.90
46037;DHT22;31769;49.304;8.428;2023-07-29T18:02:27;25.30;99.90
46037;DHT22;31769;49.304;8.428;2023-07-29T18:05:28;25.10;99.90
46037;DHT22;31769;49.304;8.428;2023-07-29T18:08:28;24.90;99.90
46037;DHT22;31769;49.304;8.428;2023-07-29T18:11:29;24.90;99.90
46037;DHT22;31769;49.304;8.428;2023-07-29T18:14:30;24.80;99.90
46037;DHT22;31769;49.304;8.428;2023-07-29T18:17:30;24.40;99.90
46037;DHT22;31769;49.304;8.428;2023-07-29T18:20:31;24.40;99.90
46037;DHT22;31769;49.304;8.428;2023-07-29T18:23:32;24.10;99.90
46037;DHT22;31769;49.304;8.428;2023-07-29T18:26:35;24.00;99.90
46037;DHT22;31769;49.304;8.428;2023-07-29T18:29:35;23.80;99.90
46037;DHT22;31769;49.304;8.428;2023-07-29T18:32:36;23.80;99.90
46037;DHT22;31769;49.304;8.428;2023-07-29T18:35:40;23.50;99.90
46037;DHT22;31769;49.304;8.428;2023-07-29T18:38:50;23.30;99.90
46037;DHT22;31769;49.304;8.428;2023-07-29T18:41:51;23.20;99.90
46037;DHT22;31769;49.304;8.428;2023-07-29T18:44:52;23.10;99.90
46037;DHT22;31769;49.304;8.428;2023-07-29T18:47:52;22.90;99.90
46037;DHT22;31769;49.304;8.428;2023-07-29T18:50:53;22.90;99.90
46037;DHT22;31769;49.304;8.428;2023-07-29T18:53:54;22.80;99.90
46037;DHT22;31769;49.304;8.428;2023-07-29T18:56:54;22.60;99.90
46037;DHT22;31769;49.304;8.428;2023-07-29T18:59:56;22.40;99.90
46037;DHT22;31769;49.304;8.428;2023-07-29T19:02:57;22.40;99.90
46037;DHT22;31769;49.304;8.428;2023-07-29T19:05:59;22.20;99.90
46037;DHT22;31769;49.304;8.428;2023-07-29T19:09:00;22.20;99.90
46037;DHT22;31769;49.304;8.428;2023-07-29T19:12:01;22.10;99.90
46037;DHT22;31769;49.304;8.428;2023-07-29T19:15:02;22.00;99.90
46037;DHT22;31769;49.304;8.428;2023-07-29T19:18:03;21.90;99.90
46037;DHT22;31769;49.304;8.428;2023-07-29T19:21:03;21.80;99.90
46037;DHT22;31769;49.304;8.428;2023-07-29T19:24:04;21.80;99.90